Time;durP1;ratioP1;P1;durP2;ratioP2;P2;SDS_P1;SDS_P2;PMS_P1;PMS_P2;Temp;Humidity;BMP_temperature;BMP_pressure;BME280_temperature;BME280_humidity;BME280_pressure;Samples;Min_cycle;Max_cycle;Signal;HPM_P1;HPM_P2
2023/02/20 00:01:30;;;;;;;1.70;1.10;;;;;;;1.67;100.00;98922.11;106459;1251;72279;-60
2023/02/20 00:03:59;;;;;;;2.40;1.10;;;;;;;1.67;100.00;98918.15;105121;1266;69058;-60
2023/02/20 00:06:26;;;;;;;1.60;1.10;;;;;;;1.67;100.00;98920.91;105028;1250;71011;-61
2023/02/20 00:08:54;;;;;;;1.90;1.20;;;;;;;1.63;100.00;98922.88;105153;1250;61628;-60
2023/02/20 00:11:21;;;;;;;1.10;1.00;;;;;;;1.62;100.00;98924.11;105289;1254;61706;-62
2023/02/20 00:13:51;;;;;;;3.60;1.00;;;;;;;1.60;100.00;98929.84;105026;1257;74305;-60
2023/02/20 00:16:18;;;;;;;3.00;1.10;;;;;;;1.60;100.00;98932.44;105112;1266;68326;-60
2023/02/20 00:18:45;;;;;;;2.90;1.10;;;;;;;1.60;100.00;98931.39;105004;1250;72194;-61
2023/02/20 00:21:15;;;;;;;1.90;0.90;;;;;;;1.60;100.00;98930.38;104974;1251;61714;-61
2023/02/20 00:23:42;;;;;;;1.40;0.90;;;;;;;1.57;100.00;98929.89;105178;1260;61794;-62
2023/02/20 00:26:09;;;;;;;1.50;1.00;;;;;;;1.54;100.00;98930.65;104970;1253;73473;-61
2023/02/20 00:28:41;;;;;;;2.40;1.80;;;;;;;1.56;100.00;98927.49;105082;1266;68718;-65
2023/02/20 00:31:17;;;;;;;1.70;1.20;;;;;;;1.54;100.00;98928.55;105140;1253;72272;-62
2023/02/20 00:33:44;;;;;;;1.60;1.30;;;;;;;1.52;100.00;98926.70;105128;1260;61692;-61
2023/02/20 00:36:17;;;;;;;1.50;0.90;;;;;;;1.52;100.00;98926.52;105336;1266;61598;-62
2023/02/20 00:38:44;;;;;;;1.60;1.20;;;;;;;1.50;100.00;98924.85;104867;1250;73487;-62
2023/02/20 00:41:13;;;;;;;2.00;1.20;;;;;;;1.46;100.00;98922.84;105120;1253;69196;-62
2023/02/20 00:43:40;;;;;;;2.70;1.10;;;;;;;1.43;100.00;98923.58;105141;1250;72286;-62
2023/02/20 00:48:04;;;;;;;1.50;0.90;;;;;;;1.15;100.00;98921.97;102183;1287;600424;-60
2023/02/20 00:50:32;;;;;;;2.90;1.40;;;;;;;1.37;100.00;98916.09;106283;1262;60318;-61
2023/02/20 00:53:02;;;;;;;2.60;1.20;;;;;;;1.46;100.00;98916.45;106643;1262;61156;-61
2023/02/20 00:55:30;;;;;;;2.20;1.10;;;;;;;1.48;100.00;98916.07;104205;1267;70801;-60
2023/02/20 00:57:58;;;;;;;2.70;1.30;;;;;;;1.51;100.00;98914.63;105990;1263;68851;-61
2023/02/20 01:00:30;;;;;;;1.10;0.90;;;;;;;1.54;100.00;98910.09;107344;1263;71684;-62
2023/02/20 01:02:58;;;;;;;2.20;1.30;;;;;;;1.54;100.00;98911.81;107494;1262;58516;-64
2023/02/20 01:05:27;;;;;;;1.40;0.90;;;;;;;1.60;100.00;98914.48;108972;1249;58908;-61
2023/02/20 01:07:55;;;;;;;2.70;1.30;;;;;;;1.60;100.00;98919.98;107749;1248;71128;-61
2023/02/20 01:10:24;;;;;;;2.50;1.40;;;;;;;1.60;100.00;98926.41;105384;1249;67989;-61
2023/02/20 01:12:53;;;;;;;2.00;1.50;;;;;;;1.56;100.00;98928.70;105364;1250;71103;-61
2023/02/20 01:15:22;;;;;;;1.30;1.10;;;;;;;1.53;100.00;98926.86;104736;1263;60863;-60
2023/02/20 01:17:55;;;;;;;2.50;1.30;;;;;;;1.50;100.00;98928.48;105293;1253;60755;-61
2023/02/20 01:20:25;;;;;;;1.80;1.20;;;;;;;1.49;100.00;98934.17;105028;1252;71598;-60
2023/02/20 01:22:55;;;;;;;1.50;1.40;;;;;;;1.44;100.00;98930.13;105298;1256;68595;-61
2023/02/20 01:25:23;;;;;;;2.80;1.20;;;;;;;1.42;100.00;98923.95;105069;1249;71073;-61
2023/02/20 01:27:51;;;;;;;1.80;1.20;;;;;;;1.39;100.00;98926.41;105274;1253;60897;-61
2023/02/20 01:30:21;;;;;;;2.20;1.30;;;;;;;1.39;100.00;98922.10;105240;1253;62487;-61
2023/02/20 01:32:49;;;;;;;2.20;1.20;;;;;;;1.35;100.00;98924.92;105212;1250;72611;-60
2023/02/20 01:35:20;;;;;;;1.10;0.80;;;;;;;1.38;100.00;98924.71;105206;1254;69606;-60
2023/02/20 01:37:48;;;;;;;3.10;1.30;;;;;;;1.38;100.00;98926.08;105189;1252;73030;-61
2023/02/20 01:40:20;;;;;;;3.20;1.20;;;;;;;1.39;100.00;98931.42;105271;1248;60789;-60
2023/02/20 01:42:49;;;;;;;2.80;1.20;;;;;;;1.35;100.00;98927.52;104833;1257;60922;-63
2023/02/20 01:45:21;;;;;;;1.00;0.90;;;;;;;1.34;100.00;98926.15;105149;1250;72786;-63
2023/02/20 01:47:54;;;;;;;2.10;1.00;;;;;;;1.38;100.00;98925.91;104996;1250;68995;-61
2023/02/20 01:50:26;;;;;;;3.10;1.20;;;;;;;1.37;100.00;98925.08;104690;1253;72117;-61
2023/02/20 01:52:57;;;;;;;2.40;1.10;;;;;;;1.39;100.00;98930.90;104621;1250;61000;-61
2023/02/20 01:55:48;;;;;;;1.60;0.90;;;;;;;1.33;100.00;98928.75;105115;1259;60799;-63
2023/02/20 01:58:19;;;;;;;1.10;0.90;;;;;;;1.33;100.00;98926.35;104788;1250;71657;-61
2023/02/20 02:00:50;;;;;;;2.10;1.00;;;;;;;1.33;100.00;98926.17;104986;1260;69187;-61
2023/02/20 02:03:25;;;;;;;3.30;1.20;;;;;;;1.31;100.00;98926.20;104659;1255;70747;-61
2023/02/20 02:05:57;;;;;;;2.30;1.30;;;;;;;1.30;100.00;98923.12;104836;1248;60798;-61
2023/02/20 02:08:26;;;;;;;0.90;0.80;;;;;;;1.26;100.00;98919.21;104960;1249;60907;-60
2023/02/20 02:11:09;;;;;;;1.90;1.00;;;;;;;1.24;100.00;98924.94;104948;1253;71555;-64
2023/02/20 02:13:39;;;;;;;3.00;0.80;;;;;;;1.20;100.00;98924.32;105034;1248;67714;-62
2023/02/20 02:16:29;;;;;;;1.10;0.80;;;;;;;1.24;100.00;98922.70;104554;1251;73141;-64
2023/02/20 02:19:10;;;;;;;1.60;1.00;;;;;;;1.19;100.00;98920.53;105174;1260;60737;-62
2023/02/20 02:21:54;;;;;;;1.40;0.80;;;;;;;1.21;100.00;98922.56;104808;1254;60792;-62
2023/02/20 02:24:27;;;;;;;1.80;1.10;;;;;;;1.17;100.00;98921.77;105188;1253;72523;-61
2023/02/20 02:27:28;;;;;;;2.20;1.10;;;;;;;1.16;100.00;98921.95;105205;1259;67796;-62
2023/02/20 02:29:57;;;;;;;1.30;0.90;;;;;;;1.11;100.00;98924.80;105046;1251;71560;-61
2023/02/20 02:33:05;;;;;;;1.50;1.00;;;;;;;1.15;100.00;98924.21;105156;1250;60875;-63
2023/02/20 02:35:38;;;;;;;2.70;1.30;;;;;;;1.12;100.00;98924.95;105136;1250;60790;-63
2023/02/20 02:38:07;;;;;;;2.00;0.90;;;;;;;1.14;100.00;98921.13;104928;1250;71435;-62
2023/02/20 02:40:42;;;;;;;1.20;1.00;;;;;;;1.08;100.00;98926.05;104967;1253;68001;-63
2023/02/20 02:43:22;;;;;;;1.40;1.00;;;;;;;1.10;100.00;98918.09;105075;1253;72932;-61
2023/02/20 02:45:53;;;;;;;1.20;1.10;;;;;;;1.10;100.00;98915.83;105113;1252;60862;-61
2023/02/20 02:48:53;;;;;;;1.30;0.80;;;;;;;1.05;100.00;98915.58;105215;1252;60875;-61
2023/02/20 02:51:24;;;;;;;1.10;0.90;;;;;;;1.01;100.00;98919.27;105250;1250;72164;-61
2023/02/20 02:54:14;;;;;;;2.50;1.00;;;;;;;1.06;100.00;98906.42;105221;1251;68308;-61
2023/02/20 02:56:45;;;;;;;2.60;1.00;;;;;;;1.04;100.00;98916.10;105139;1253;72880;-64
2023/02/20 02:59:27;;;;;;;1.60;0.80;;;;;;;1.06;100.00;98916.95;105236;1248;60888;-63
2023/02/20 03:02:02;;;;;;;1.40;0.80;;;;;;;1.06;100.00;98919.35;105136;1250;60741;-61
2023/02/20 03:04:30;;;;;;;5.00;1.00;;;;;;;1.08;100.00;98920.70;104733;1251;71834;-61
2023/02/20 03:07:03;;;;;;;1.90;1.00;;;;;;;1.09;100.00;98922.41;105266;1251;70266;-61
2023/02/20 03:09:37;;;;;;;0.70;0.60;;;;;;;1.08;100.00;98928.98;104986;1253;71925;-61
2023/02/20 03:12:08;;;;;;;1.20;0.80;;;;;;;1.07;100.00;98930.73;105241;1250;60803;-62
2023/02/20 03:17:51;;;;;;;1.00;0.80;;;;;;;1.02;100.00;98926.50;104784;1254;72277;-61
2023/02/20 03:20:20;;;;;;;0.80;0.70;;;;;;;0.91;100.00;98922.52;105323;1249;69082;-63
2023/02/20 03:22:54;;;;;;;2.20;0.90;;;;;;;0.89;100.00;98923.77;105095;1252;72952;-64
2023/02/20 03:25:30;;;;;;;1.10;1.10;;;;;;;0.89;100.00;98926.36;105395;1259;60770;-62
2023/02/20 03:28:10;;;;;;;1.20;0.80;;;;;;;0.85;100.00;98921.40;105178;1250;60766;-63
2023/02/20 03:30:53;;;;;;;1.60;1.00;;;;;;;0.82;100.00;98922.65;105200;1249;72446;-63
2023/02/20 03:44:56;;;;;;;1.90;1.00;;;;;;;0.73;100.00;98934.17;104729;1254;72729;-62
2023/02/20 03:47:27;;;;;;;1.20;0.70;;;;;;;0.68;100.00;98928.21;104688;1252;67876;-61
2023/02/20 03:49:55;;;;;;;2.70;0.90;;;;;;;0.65;100.00;98928.08;105078;1253;72191;-61
2023/02/20 03:52:25;;;;;;;1.40;0.70;;;;;;;0.65;100.00;98930.50;104546;1256;60785;-63
2023/02/20 03:54:54;;;;;;;1.00;0.70;;;;;;;0.59;100.00;98929.89;104761;1256;60827;-62
2023/02/20 03:57:27;;;;;;;2.10;0.90;;;;;;;0.60;100.00;98929.88;105120;1249;71693;-62
2023/02/20 04:00:04;;;;;;;1.40;0.90;;;;;;;0.62;100.00;98930.02;105151;1251;69053;-62
2023/02/20 04:02:44;;;;;;;1.00;0.60;;;;;;;0.54;100.00;98930.80;105125;1253;71459;-61
2023/02/20 04:05:25;;;;;;;0.80;0.80;;;;;;;0.53;100.00;98929.77;104523;1272;60873;-60
2023/02/20 04:08:06;;;;;;;2.00;0.80;;;;;;;0.52;100.00;98925.49;104912;1249;61467;-61
2023/02/20 04:10:42;;;;;;;2.30;0.80;;;;;;;0.48;100.00;98928.64;105085;1250;72691;-61
2023/02/20 04:13:15;;;;;;;4.30;0.70;;;;;;;0.48;100.00;98925.38;104655;1250;69161;-59
2023/02/20 04:15:46;;;;;;;1.70;1.10;;;;;;;0.52;100.00;98929.98;104730;1253;71411;-60
2023/02/20 04:18:17;;;;;;;2.80;0.90;;;;;;;0.51;100.00;98919.66;104776;1250;60910;-60
2023/02/20 04:20:47;;;;;;;1.40;0.80;;;;;;;0.50;100.00;98922.75;104881;1254;60792;-60
2023/02/20 04:23:27;;;;;;;1.80;0.70;;;;;;;0.49;100.00;98923.46;104958;1250;72577;-61
2023/02/20 04:26:15;;;;;;;1.20;0.80;;;;;;;0.50;100.00;98917.77;104836;1250;69081;-61
2023/02/20 04:28:45;;;;;;;1.20;0.90;;;;;;;0.45;100.00;98925.92;105111;1261;71997;-60
2023/02/20 04:31:15;;;;;;;0.90;0.80;;;;;;;0.43;100.00;98915.27;104703;1254;60766;-63
2023/02/20 04:33:44;;;;;;;3.50;1.30;;;;;;;0.45;100.00;98916.98;104846;1262;61311;-60
2023/02/20 04:36:21;;;;;;;2.30;1.20;;;;;;;0.41;100.00;98920.81;105108;1249;72731;-60
2023/02/20 04:38:50;;;;;;;1.20;0.90;;;;;;;0.37;100.00;98917.76;105063;1250;70002;-60
2023/02/20 04:41:23;;;;;;;1.70;1.10;;;;;;;0.39;100.00;98918.95;105116;1250;70770;-60
2023/02/20 04:44:30;;;;;;;3.20;1.50;;;;;;;0.35;100.00;98914.52;105185;1257;60889;-62
2023/02/20 04:46:40;;;;;;;3.00;1.30;;;;;;;0.34;100.00;98911.94;105211;1251;61149;-61
2023/02/20 04:49:08;;;;;;;3.20;1.10;;;;;;;0.35;100.00;98909.16;105102;1249;72522;-61
2023/02/20 04:51:37;;;;;;;1.90;1.00;;;;;;;0.33;100.00;98905.41;105652;1253;68438;-61
2023/02/20 04:54:06;;;;;;;1.40;0.90;;;;;;;0.31;100.00;98902.67;105086;1266;71394;-61
2023/02/20 04:56:34;;;;;;;2.10;1.20;;;;;;;0.37;100.00;98904.14;104745;1248;60898;-61
2023/02/20 04:59:04;;;;;;;1.90;0.90;;;;;;;0.33;100.00;98901.77;104644;1266;60814;-61
2023/02/20 05:01:33;;;;;;;3.10;1.00;;;;;;;0.28;100.00;98902.88;105057;1253;73613;-61
2023/02/20 05:04:02;;;;;;;2.70;1.00;;;;;;;0.30;100.00;98910.96;106776;1249;69125;-61
2023/02/20 05:06:30;;;;;;;1.10;1.00;;;;;;;0.30;100.00;98915.95;107636;1252;72085;-61
2023/02/20 05:08:58;;;;;;;1.60;1.00;;;;;;;0.32;100.00;98926.10;105140;1250;61729;-63
2023/02/20 05:11:27;;;;;;;1.40;0.90;;;;;;;0.37;100.00;98926.39;105144;1250;61657;-61
2023/02/20 05:13:55;;;;;;;2.00;1.00;;;;;;;0.35;100.00;98928.81;105002;1250;74817;-61
2023/02/20 05:16:24;;;;;;;1.20;1.00;;;;;;;0.36;100.00;98926.73;105071;1251;68372;-61
2023/02/20 05:18:52;;;;;;;2.60;1.20;;;;;;;0.30;100.00;98929.56;104961;1251;72433;-61
2023/02/20 05:24:08;;;;;;;1.40;1.00;;;;;;;0.36;100.00;98929.15;105026;1253;61668;-61
2023/02/20 05:26:36;;;;;;;2.00;1.30;;;;;;;0.36;100.00;98926.73;105012;1256;72480;-60
2023/02/20 05:29:05;;;;;;;1.80;1.00;;;;;;;0.38;100.00;98930.85;105016;1250;69800;-62
2023/02/20 05:31:35;;;;;;;1.40;0.90;;;;;;;0.34;100.00;98933.84;105320;1252;73266;-61
2023/02/20 05:34:04;;;;;;;1.30;0.80;;;;;;;0.38;100.00;98933.44;105190;1253;61712;-61
2023/02/20 05:36:34;;;;;;;2.10;0.80;;;;;;;0.42;100.00;98932.19;105388;1247;61656;-63
2023/02/20 05:39:05;;;;;;;1.60;1.00;;;;;;;0.43;100.00;98930.10;105254;1251;72795;-61
2023/02/20 05:41:34;;;;;;;1.00;0.90;;;;;;;0.47;100.00;98930.39;105208;1251;68447;-61
2023/02/20 05:44:03;;;;;;;1.00;0.80;;;;;;;0.52;100.00;98935.66;105229;1253;71611;-61
2023/02/20 05:46:34;;;;;;;2.10;1.10;;;;;;;0.55;100.00;98937.52;105208;1253;61576;-63
2023/02/20 05:49:02;;;;;;;1.00;0.90;;;;;;;0.53;100.00;98941.16;104617;1264;61612;-62
2023/02/20 05:51:31;;;;;;;1.40;0.90;;;;;;;0.59;100.00;98945.23;105163;1257;73846;-61
2023/02/20 05:54:02;;;;;;;1.60;0.90;;;;;;;0.60;100.00;98945.91;105149;1249;67813;-61
2023/02/20 05:56:31;;;;;;;2.30;0.90;;;;;;;0.66;100.00;98952.05;105321;1256;72006;-62
2023/02/20 05:59:00;;;;;;;1.90;0.70;;;;;;;0.72;100.00;98951.10;105112;1250;61772;-64
2023/02/20 06:01:30;;;;;;;0.80;0.60;;;;;;;0.75;100.00;98946.92;105490;1263;61676;-65
2023/02/20 06:04:00;;;;;;;2.20;0.90;;;;;;;0.75;100.00;98951.04;105200;1257;74129;-64
2023/02/20 06:06:36;;;;;;;1.00;0.80;;;;;;;0.80;100.00;98955.81;105280;1253;70239;-63
2023/02/20 06:09:11;;;;;;;1.20;0.70;;;;;;;0.83;100.00;98952.65;105093;1249;71408;-64
2023/02/20 06:11:47;;;;;;;;;;;;;;;0.91;100.00;98947.20;105095;1251;61691;-63
2023/02/20 06:14:17;;;;;;;2.20;1.00;;;;;;;0.93;100.00;98946.82;105317;1247;61698;-64
2023/02/20 06:16:45;;;;;;;2.10;1.30;;;;;;;0.99;100.00;98952.95;105322;1253;72274;-66
2023/02/20 06:19:21;;;;;;;3.40;0.90;;;;;;;1.04;100.00;98952.38;105050;1250;68228;-66
2023/02/20 06:21:52;;;;;;;2.70;1.20;;;;;;;1.10;100.00;98955.02;105287;1252;73088;-64
2023/02/20 06:24:20;;;;;;;1.30;0.90;;;;;;;1.17;100.00;98951.64;105245;1251;61927;-62
2023/02/20 06:26:49;;;;;;;1.80;0.90;;;;;;;1.18;100.00;98950.76;105169;1269;61174;-65
2023/02/20 06:29:18;;;;;;;2.10;1.00;;;;;;;1.14;100.00;98955.80;105269;1249;73522;-65
2023/02/20 06:31:46;;;;;;;1.50;1.10;;;;;;;1.23;100.00;98955.50;105154;1253;69091;-62
2023/02/20 06:34:15;;;;;;;2.50;1.00;;;;;;;1.28;100.00;98959.92;105426;1252;71778;-64
2023/02/20 06:36:44;;;;;;;1.00;0.80;;;;;;;1.33;100.00;98951.88;105209;1247;61644;-65
2023/02/20 06:39:12;;;;;;;2.30;1.00;;;;;;;1.36;100.00;98958.23;105525;1250;61018;-63
2023/02/20 06:41:41;;;;;;;1.70;1.10;;;;;;;1.45;100.00;98955.84;109032;1247;72471;-65
2023/02/20 06:44:09;;;;;;;1.20;1.10;;;;;;;1.52;100.00;98961.59;107137;1252;69293;-66
2023/02/20 06:51:17;;;;;;;1.70;1.10;;;;;;;1.68;100.00;98966.50;105095;1254;61685;-65
2023/02/20 06:54:29;;;;;;;1.70;1.10;;;;;;;1.68;100.00;98962.88;105038;1256;61838;-63
2023/02/20 06:57:11;;;;;;;1.20;0.90;;;;;;;1.80;100.00;98959.04;104669;1268;74568;-66
2023/02/20 06:59:51;;;;;;;3.10;1.10;;;;;;;1.85;100.00;98954.80;104746;1256;69966;-65
2023/02/20 07:02:20;;;;;;;1.20;1.10;;;;;;;1.87;100.00;98960.96;105093;1251;72198;-69
2023/02/20 07:04:49;;;;;;;1.50;1.00;;;;;;;1.92;100.00;98954.14;105182;1252;61720;-66
2023/02/20 07:07:18;;;;;;;1.70;0.90;;;;;;;2.01;100.00;98962.80;105283;1271;61596;-65
2023/02/20 07:09:46;;;;;;;2.10;1.10;;;;;;;2.00;100.00;98968.01;105464;1253;73710;-67
2023/02/20 07:12:19;;;;;;;1.20;1.00;;;;;;;2.02;100.00;98964.33;105317;1248;70205;-65
2023/02/20 07:14:52;;;;;;;2.10;1.20;;;;;;;2.10;100.00;98968.67;105142;1263;73265;-64
2023/02/20 07:17:20;;;;;;;2.10;1.30;;;;;;;2.20;100.00;98963.27;105253;1250;61692;-64
2023/02/20 07:19:49;;;;;;;3.60;1.40;;;;;;;2.20;100.00;98974.36;105246;1263;61592;-66
2023/02/20 07:22:17;;;;;;;1.50;1.00;;;;;;;2.27;100.00;98967.83;105165;1252;74633;-64
2023/02/20 07:24:50;;;;;;;1.70;0.90;;;;;;;2.39;100.00;98968.80;105117;1252;68969;-66
2023/02/20 07:27:18;;;;;;;0.90;0.80;;;;;;;2.47;100.00;98971.58;105270;1248;71350;-65
2023/02/20 07:29:48;;;;;;;2.20;1.20;;;;;;;2.53;100.00;98965.90;105165;1251;61749;-64
2023/02/20 07:32:19;;;;;;;1.20;1.00;;;;;;;2.54;100.00;98972.47;105143;1250;61610;-69
2023/02/20 07:34:47;;;;;;;4.50;1.20;;;;;;;2.64;100.00;98964.98;105585;1253;72197;-65
2023/02/20 07:37:32;;;;;;;2.00;1.10;;;;;;;2.69;100.00;98970.23;105242;1251;68525;-63
2023/02/20 07:40:01;;;;;;;1.80;1.30;;;;;;;2.73;100.00;98964.80;105440;1253;70748;-65
2023/02/20 07:42:31;;;;;;;1.10;0.90;;;;;;;2.80;100.00;98960.30;105128;1252;61696;-65
2023/02/20 07:45:18;;;;;;;2.90;1.30;;;;;;;2.89;100.00;98963.92;105076;1247;61777;-65
2023/02/20 07:47:47;;;;;;;2.20;1.10;;;;;;;2.99;100.00;98960.23;105195;1253;73458;-64
2023/02/20 07:50:16;;;;;;;1.30;1.00;;;;;;;3.06;100.00;98958.15;105396;1251;69123;-67
2023/02/20 07:52:44;;;;;;;5.20;1.10;;;;;;;3.03;100.00;98954.43;105252;1249;71787;-68
2023/02/20 07:55:14;;;;;;;2.30;1.20;;;;;;;3.04;100.00;98948.55;105407;1252;62102;-68
2023/02/20 07:57:44;;;;;;;1.10;0.90;;;;;;;3.06;100.00;98946.39;105406;1251;61631;-68
2023/02/20 08:00:15;;;;;;;1.10;0.80;;;;;;;3.15;100.00;98939.79;104882;1255;73430;-67
2023/02/20 08:02:43;;;;;;;2.10;0.90;;;;;;;3.23;100.00;98945.83;105301;1249;68846;-66
2023/02/20 08:05:12;;;;;;;0.90;0.60;;;;;;;3.27;98.81;98935.66;105271;1248;71225;-67
2023/02/20 08:07:45;;;;;;;2.10;1.10;;;;;;;3.25;99.58;98933.13;105254;1250;61685;-67
2023/02/20 08:10:14;;;;;;;0.80;0.80;;;;;;;3.28;96.14;98929.58;105252;1253;61694;-68
2023/02/20 08:12:44;;;;;;;1.90;1.10;;;;;;;3.38;98.82;98938.87;105182;1267;74819;-64
2023/02/20 08:15:13;;;;;;;2.30;1.10;;;;;;;3.45;98.31;98943.89;105488;1267;69704;-66
2023/02/20 08:17:41;;;;;;;1.70;1.10;;;;;;;3.44;94.46;98942.02;105175;1248;72369;-65
2023/02/20 08:20:18;;;;;;;2.10;0.80;;;;;;;3.53;94.35;98949.25;105008;1252;61613;-66
2023/02/20 08:22:48;;;;;;;2.00;0.80;;;;;;;3.63;95.06;98946.92;105076;1252;61576;-66
2023/02/20 08:25:18;;;;;;;1.80;1.10;;;;;;;3.75;92.95;98946.95;105151;1248;72263;-66
2023/02/20 08:27:47;;;;;;;1.80;0.90;;;;;;;3.87;96.46;98950.42;105189;1252;69300;-67
2023/02/20 08:30:22;;;;;;;1.10;0.80;;;;;;;3.86;89.88;98953.94;105185;1264;72434;-68
2023/02/20 08:32:51;;;;;;;1.20;0.90;;;;;;;3.81;84.71;98952.84;105184;1253;61653;-67
2023/02/20 08:35:22;;;;;;;1.30;0.90;;;;;;;3.92;91.65;98955.16;105115;1252;61681;-64
2023/02/20 08:37:51;;;;;;;1.10;0.90;;;;;;;3.94;86.84;98951.83;105342;1253;74120;-63
2023/02/20 08:40:22;;;;;;;2.20;1.20;;;;;;;3.98;87.98;98949.97;105393;1251;70379;-63
2023/02/20 08:42:53;;;;;;;2.70;1.30;;;;;;;3.99;83.93;98954.80;104868;1251;72104;-62
2023/02/20 08:45:22;;;;;;;1.00;0.90;;;;;;;4.05;87.22;98949.62;105517;1261;61683;-63
2023/02/20 08:47:51;;;;;;;1.20;1.10;;;;;;;4.12;87.36;98952.02;105221;1248;61577;-65
2023/02/20 08:50:19;;;;;;;1.60;1.00;;;;;;;4.17;83.13;98953.10;104965;1257;72206;-63
2023/02/20 08:52:48;;;;;;;1.00;0.80;;;;;;;4.22;83.51;98949.84;105138;1257;68361;-64
2023/02/20 08:55:16;;;;;;;1.60;0.90;;;;;;;4.27;82.92;98956.64;105155;1261;71080;-63
2023/02/20 08:57:45;;;;;;;1.80;1.10;;;;;;;4.31;82.54;98946.13;105604;1249;61695;-62
2023/02/20 09:00:14;;;;;;;1.50;0.90;;;;;;;4.40;87.71;98946.71;105042;1249;61679;-61
2023/02/20 09:02:43;;;;;;;1.60;1.00;;;;;;;4.52;87.58;98935.29;105144;1251;73489;-64
2023/02/20 09:05:14;;;;;;;3.60;1.10;;;;;;;4.56;79.87;98943.33;105202;1250;69187;-65
2023/02/20 09:07:44;;;;;;;1.20;0.90;;;;;;;4.59;77.32;98944.80;105024;1249;71966;-63
2023/02/20 09:10:20;;;;;;;2.40;1.00;;;;;;;4.62;73.53;98934.12;105254;1262;61683;-64
2023/02/20 09:12:49;;;;;;;1.80;1.10;;;;;;;4.68;75.06;98947.83;105251;1262;62152;-63
2023/02/20 09:15:17;;;;;;;1.90;0.90;;;;;;;4.69;76.77;98937.02;105613;1253;73590;-63
2023/02/20 09:17:49;;;;;;;2.00;1.20;;;;;;;4.79;78.35;98947.33;105322;1248;68154;-64
2023/02/20 09:20:21;;;;;;;2.30;1.00;;;;;;;4.83;72.72;98940.95;105368;1254;71680;-62
2023/02/20 09:22:55;;;;;;;2.00;1.00;;;;;;;4.80;70.68;98938.42;105424;1251;61707;-63
2023/02/20 09:25:24;;;;;;;1.90;0.90;;;;;;;4.85;71.52;98938.98;105003;1266;62032;-65
2023/02/20 09:27:58;;;;;;;2.30;1.50;;;;;;;4.95;72.79;98933.10;105310;1251;74111;-65
2023/02/20 09:30:26;;;;;;;1.70;1.00;;;;;;;5.07;72.32;98935.16;105617;1248;69011;-63
2023/02/20 09:32:55;;;;;;;2.10;1.10;;;;;;;5.16;68.41;98927.41;105344;1253;72410;-63
2023/02/20 09:35:25;;;;;;;1.90;1.20;;;;;;;5.11;68.14;98924.45;105063;1252;61588;-63
2023/02/20 09:37:54;;;;;;;2.20;1.30;;;;;;;5.11;68.02;98927.23;105164;1250;61742;-64
2023/02/20 09:40:24;;;;;;;3.90;1.30;;;;;;;5.17;68.17;98929.81;105078;1252;72427;-68
2023/02/20 09:43:23;;;;;;;1.50;0.90;;;;;;;5.32;67.04;98924.98;105220;1250;71202;-66
2023/02/20 09:46:14;;;;;;;2.50;0.70;;;;;;;5.51;65.18;98915.65;105109;1250;71631;-68
2023/02/20 09:48:58;;;;;;;1.60;1.30;;;;;;;5.63;65.29;98914.89;105313;1252;61686;-67
2023/02/20 09:51:33;;;;;;;1.20;0.90;;;;;;;5.63;60.50;98914.91;105156;1256;61581;-67
2023/02/20 09:54:01;;;;;;;2.50;1.20;;;;;;;5.68;63.94;98905.00;105206;1249;72988;-66
2023/02/20 09:56:45;;;;;;;1.40;1.00;;;;;;;5.68;62.43;98908.31;105207;1254;68417;-65
2023/02/20 09:59:35;;;;;;;0.80;0.70;;;;;;;5.63;59.12;98903.07;105593;1256;72348;-69
2023/02/20 10:02:09;;;;;;;1.10;0.80;;;;;;;5.63;58.35;98911.42;106702;1250;61584;-64
2023/02/20 10:04:39;;;;;;;1.40;1.10;;;;;;;5.79;62.05;98905.66;108960;1249;59889;-71
2023/02/20 10:07:36;;;;;;;1.80;0.90;;;;;;;6.02;63.11;98898.45;105988;1256;74551;-65
2023/02/20 10:10:37;;;;;;;1.20;0.70;;;;;;;6.21;60.19;98903.48;105713;1252;69009;-65
2023/02/20 10:13:25;;;;;;;2.10;1.10;;;;;;;6.16;56.73;98894.46;105069;1251;71566;-67
2023/02/20 10:16:25;;;;;;;1.70;0.80;;;;;;;6.15;57.36;98899.00;105081;1271;61774;-67
2023/02/20 10:19:22;;;;;;;4.70;0.80;;;;;;;6.00;55.02;98895.88;105098;1265;61702;-66
2023/02/20 10:22:04;;;;;;;5.50;1.40;;;;;;;5.98;56.60;98891.61;105387;1250;72582;-67
2023/02/20 10:24:56;;;;;;;1.80;1.20;;;;;;;6.02;54.72;98894.77;105283;1249;68945;-69
2023/02/20 10:27:26;;;;;;;2.90;1.20;;;;;;;5.87;54.63;98892.00;105237;1251;73319;-67
2023/02/20 10:29:55;;;;;;;2.10;0.90;;;;;;;5.90;59.34;98879.38;105063;1251;61705;-67
2023/02/20 10:32:29;;;;;;;1.90;1.20;;;;;;;5.96;58.48;98882.11;105283;1263;60991;-65
2023/02/20 10:35:04;;;;;;;1.60;1.20;;;;;;;5.87;58.37;98881.20;105418;1261;73319;-65
2023/02/20 10:37:36;;;;;;;2.00;1.10;;;;;;;5.71;59.18;98877.93;105201;1250;69082;-65
2023/02/20 10:40:38;;;;;;;2.60;1.00;;;;;;;5.44;60.80;98865.65;105077;1249;70991;-64
2023/02/20 10:43:32;;;;;;;3.50;1.40;;;;;;;5.44;65.12;98856.80;105239;1263;61695;-64
2023/02/20 10:46:54;;;;;;;2.00;1.20;;;;;;;5.61;68.74;98851.33;105170;1251;61694;-64
2023/02/20 10:49:32;;;;;;;3.10;1.50;;;;;;;5.94;67.16;98854.70;104858;1269;73456;-62
2023/02/20 10:52:01;;;;;;;2.20;1.30;;;;;;;6.08;66.15;98853.34;105041;1251;68148;-62
2023/02/20 10:54:32;;;;;;;1.40;1.20;;;;;;;6.08;71.27;98848.11;104982;1251;72401;-64
2023/02/20 10:57:21;;;;;;;2.20;1.50;;;;;;;6.12;66.96;98843.27;105211;1260;61698;-65
2023/02/20 10:59:59;;;;;;;3.30;1.80;;;;;;;6.14;61.01;98847.75;105212;1255;61688;-64
2023/02/20 11:02:31;;;;;;;2.40;1.60;;;;;;;6.07;64.48;98846.59;105239;1251;72587;-64
2023/02/20 11:05:08;;;;;;;2.30;1.60;;;;;;;5.95;65.21;98839.86;105155;1253;69843;-63
2023/02/20 11:07:37;;;;;;;3.00;1.60;;;;;;;6.02;65.29;98839.29;105055;1260;71520;-66
2023/02/20 11:10:05;;;;;;;2.50;1.30;;;;;;;6.09;63.44;98847.02;105166;1255;61676;-64
2023/02/20 11:12:47;;;;;;;2.20;1.50;;;;;;;6.17;63.93;98845.86;105331;1262;61686;-63
2023/02/20 11:15:20;;;;;;;2.30;1.30;;;;;;;6.16;61.07;98843.98;105004;1249;73266;-61
2023/02/20 11:17:51;;;;;;;2.80;1.50;;;;;;;6.27;63.85;98829.48;105085;1256;68135;-64
2023/02/20 11:20:45;;;;;;;2.60;1.30;;;;;;;6.36;63.20;98828.98;105155;1251;72364;-65
2023/02/20 11:23:37;;;;;;;2.60;1.40;;;;;;;6.34;62.47;98830.59;105037;1248;61666;-65
2023/02/20 11:26:19;;;;;;;2.20;1.10;;;;;;;6.34;65.50;98831.48;105274;1248;61683;-66
2023/02/20 11:28:56;;;;;;;4.10;1.30;;;;;;;6.31;64.24;98827.75;105315;1251;74426;-63
2023/02/20 11:31:25;;;;;;;2.20;1.30;;;;;;;6.21;65.18;98824.48;105242;1249;69018;-63
2023/02/20 11:33:55;;;;;;;2.30;1.40;;;;;;;6.13;63.77;98829.83;105175;1268;71722;-62
2023/02/20 11:36:26;;;;;;;2.40;1.30;;;;;;;6.09;64.41;98830.66;104861;1254;61700;-62
2023/02/20 11:38:59;;;;;;;2.20;1.20;;;;;;;6.20;66.52;98828.70;104844;1255;61610;-61
2023/02/20 11:41:32;;;;;;;2.00;1.10;;;;;;;6.23;64.38;98827.91;105376;1253;72807;-63
2023/02/20 11:44:24;;;;;;;2.80;1.20;;;;;;;6.29;65.85;98826.42;105478;1250;68286;-62
2023/02/20 11:47:10;;;;;;;1.70;0.90;;;;;;;6.22;62.76;98826.88;105156;1254;72203;-63
2023/02/20 11:49:38;;;;;;;3.80;1.00;;;;;;;6.13;65.42;98827.75;105382;1253;61696;-62
2023/02/20 11:52:18;;;;;;;2.50;1.10;;;;;;;5.86;65.46;98824.39;105407;1252;61798;-62
2023/02/20 11:54:50;;;;;;;1.60;1.10;;;;;;;5.53;66.04;98825.52;105294;1252;72158;-62
2023/02/20 11:57:24;;;;;;;2.70;1.20;;;;;;;5.48;67.38;98820.84;104928;1259;69041;-62
2023/02/20 12:00:08;;;;;;;2.30;0.90;;;;;;;5.32;67.76;98829.04;105441;1248;72182;-62
2023/02/20 12:03:06;;;;;;;2.30;1.30;;;;;;;5.28;69.93;98821.36;105292;1258;61773;-61
2023/02/20 12:05:42;;;;;;;3.60;1.60;;;;;;;5.30;68.46;98822.85;105153;1254;61667;-61
2023/02/20 12:08:42;;;;;;;1.30;1.00;;;;;;;5.37;69.34;98820.55;105390;1253;72099;-61
2023/02/20 12:11:15;;;;;;;2.70;1.30;;;;;;;5.48;69.26;98816.49;104924;1256;71309;-62
2023/02/20 12:13:49;;;;;;;1.90;1.40;;;;;;;5.61;69.99;98817.11;104892;1271;71359;-61
2023/02/20 12:16:53;;;;;;;5.00;1.00;;;;;;;5.73;68.88;98810.75;105758;1252;61560;-61
2023/02/20 12:19:44;;;;;;;1.80;1.20;;;;;;;5.78;67.33;98810.38;105166;1260;61617;-61
2023/02/20 12:22:27;;;;;;;2.40;1.20;;;;;;;5.81;66.80;98804.36;105226;1258;74470;-61
2023/02/20 12:25:18;;;;;;;2.00;1.00;;;;;;;5.76;69.58;98804.55;105202;1256;69699;-69